sensor_id;sensor_type;location;lat;lon;timestamp;pressure;altitude;pressure_sealevel;temperature;humidity
49583;BME280;36329;48.816;44.624;2023-10-08T00:01:56;99619;;;13.8;100
49583;BME280;36329;48.816;44.624;2023-10-08T00:04:57;99625;;;13.9;100
49583;BME280;36329;48.816;44.624;2023-10-08T00:08:00;99609;;;13.8;100
49583;BME280;36329;48.816;44.624;2023-10-08T00:11:02;99616;;;13.9;100
49583;BME280;36329;48.816;44.624;2023-10-08T00:14:04;99611;;;13.9;100
49583;BME280;36329;48.816;44.624;2023-10-08T00:17:06;99606;;;13.9;100
49583;BME280;36329;48.816;44.624;2023-10-08T00:20:09;99619;;;13.9;100
49583;BME280;36329;48.816;44.624;2023-10-08T00:23:11;99615;;;13.9;100
49583;BME280;36329;48.816;44.624;2023-10-08T00:26:13;99614;;;14;100
49583;BME280;36329;48.816;44.624;2023-10-08T00:29:15;99583;;;14;100
49583;BME280;36329;48.816;44.624;2023-10-08T00:32:16;99579;;;14.1;100
49583;BME280;36329;48.816;44.624;2023-10-08T00:35:25;99591;;;14.1;100
49583;BME280;36329;48.816;44.624;2023-10-08T00:38:31;99582;;;14.1;100
49583;BME280;36329;48.816;44.624;2023-10-08T00:41:34;99581;;;14.2;100
49583;BME280;36329;48.816;44.624;2023-10-08T00:44:36;99595;;;14.2;100
49583;BME280;36329;48.816;44.624;2023-10-08T00:47:38;99579;;;14.3;100
49583;BME280;36329;48.816;44.624;2023-10-08T00:50:40;99560;;;14.3;100
49583;BME280;36329;48.816;44.624;2023-10-08T00:53:42;99576;;;14.4;100
49583;BME280;36329;48.816;44.624;2023-10-08T00:56:46;99567;;;14.4;100
49583;BME280;36329;48.816;44.624;2023-10-08T00:59:48;99556;;;14.4;100
49583;BME280;36329;48.816;44.624;2023-10-08T01:02:50;99553;;;14.4;100
49583;BME280;36329;48.816;44.624;2023-10-08T01:05:53;99545;;;14.4;100
49583;BME280;36329;48.816;44.624;2023-10-08T01:08:55;99540;;;14.5;100
49583;BME280;36329;48.816;44.624;2023-10-08T01:12:12;99535;;;14.5;100
49583;BME280;36329;48.816;44.624;2023-10-08T01:15:15;99522;;;14.5;100
49583;BME280;36329;48.816;44.624;2023-10-08T01:18:17;99520;;;14.5;100
49583;BME280;36329;48.816;44.624;2023-10-08T01:21:19;99522;;;14.6;100
49583;BME280;36329;48.816;44.624;2023-10-08T01:24:21;99518;;;14.6;100
49583;BME280;36329;48.816;44.624;2023-10-08T01:27:23;99529;;;14.6;100
49583;BME280;36329;48.816;44.624;2023-10-08T01:30:26;99518;;;14.6;100
49583;BME280;36329;48.816;44.624;2023-10-08T01:33:28;99527;;;14.7;100
49583;BME280;36329;48.816;44.624;2023-10-08T01:36:31;99524;;;14.8;100
49583;BME280;36329;48.816;44.624;2023-10-08T01:39:32;99521;;;14.7;100
49583;BME280;36329;48.816;44.624;2023-10-08T01:42:40;99507;;;14.7;100
49583;BME280;36329;48.816;44.624;2023-10-08T01:45:42;99516;;;14.7;100
49583;BME280;36329;48.816;44.624;2023-10-08T01:48:44;99511;;;14.7;100
49583;BME280;36329;48.816;44.624;2023-10-08T01:51:46;99499;;;14.8;100
49583;BME280;36329;48.816;44.624;2023-10-08T01:54:49;99501;;;14.8;100
49583;BME280;36329;48.816;44.624;2023-10-08T01:57:51;99495;;;14.8;100
49583;BME280;36329;48.816;44.624;2023-10-08T02:00:54;99496;;;14.9;100
49583;BME280;36329;48.816;44.624;2023-10-08T02:03:56;99511;;;14.9;100
49583;BME280;36329;48.816;44.624;2023-10-08T02:06:59;99484;;;14.9;100
49583;BME280;36329;48.816;44.624;2023-10-08T02:10:01;99495;;;15;100
49583;BME280;36329;48.816;44.624;2023-10-08T02:13:08;99487;;;15;100
49583;BME280;36329;48.816;44.624;2023-10-08T02:16:11;99489;;;15;100
49583;BME280;36329;48.816;44.624;2023-10-08T02:19:13;99502;;;15;100
49583;BME280;36329;48.816;44.624;2023-10-08T02:22:15;99496;;;15;100
49583;BME280;36329;48.816;44.624;2023-10-08T02:25:17;99500;;;15;100
49583;BME280;36329;48.816;44.624;2023-10-08T02:28:20;99489;;;15;100
49583;BME280;36329;48.816;44.624;2023-10-08T02:31:22;99483;;;15;100
49583;BME280;36329;48.816;44.624;2023-10-08T02:34:24;99494;;;15.1;100
49583;BME280;36329;48.816;44.624;2023-10-08T02:37:26;99487;;;15.1;100
49583;BME280;36329;48.816;44.624;2023-10-08T02:40:28;99496;;;15.1;100
49583;BME280;36329;48.816;44.624;2023-10-08T02:43:30;99493;;;15.1;100
49583;BME280;36329;48.816;44.624;2023-10-08T02:46:32;99500;;;15.1;100
49583;BME280;36329;48.816;44.624;2023-10-08T02:49:34;99483;;;15.1;100
49583;BME280;36329;48.816;44.624;2023-10-08T02:52:36;99482;;;15.2;100
49583;BME280;36329;48.816;44.624;2023-10-08T02:55:38;99500;;;15.1;100
49583;BME280;36329;48.816;44.624;2023-10-08T02:58:40;99496;;;15.1;100
49583;BME280;36329;48.816;44.624;2023-10-08T03:01:42;99499;;;15.2;100
49583;BME280;36329;48.816;44.624;2023-10-08T03:04:45;99488;;;15.2;100
49583;BME280;36329;48.816;44.624;2023-10-08T03:07:47;99479;;;15.2;100
49583;BME280;36329;48.816;44.624;2023-10-08T03:10:54;99494;;;15.2;100
49583;BME280;36329;48.816;44.624;2023-10-08T03:13:57;99477;;;15.2;100
49583;BME280;36329;48.816;44.624;2023-10-08T03:16:59;99489;;;15.1;100
49583;BME280;36329;48.816;44.624;2023-10-08T03:20:01;99481;;;15.1;100
49583;BME280;36329;48.816;44.624;2023-10-08T03:23:11;99493;;;15.1;100
49583;BME280;36329;48.816;44.624;2023-10-08T03:26:13;99485;;;15.1;100
49583;BME280;36329;48.816;44.624;2023-10-08T03:29:15;99492;;;15.1;100
49583;BME280;36329;48.816;44.624;2023-10-08T03:32:22;99485;;;15.1;100
49583;BME280;36329;48.816;44.624;2023-10-08T03:35:24;99482;;;15.1;100
49583;BME280;36329;48.816;44.624;2023-10-08T03:38:27;99489;;;15.1;100
49583;BME280;36329;48.816;44.624;2023-10-08T03:41:28;99489;;;15.1;100
49583;BME280;36329;48.816;44.624;2023-10-08T03:44:30;99480;;;15.1;100
49583;BME280;36329;48.816;44.624;2023-10-08T03:47:33;99494;;;15.2;100
49583;BME280;36329;48.816;44.624;2023-10-08T03:50:46;99490;;;15.2;100
49583;BME280;36329;48.816;44.624;2023-10-08T03:53:48;99478;;;15.2;100
49583;BME280;36329;48.816;44.624;2023-10-08T03:56:49;99492;;;15.2;100
49583;BME280;36329;48.816;44.624;2023-10-08T03:59:52;99491;;;15.2;100
49583;BME280;36329;48.816;44.624;2023-10-08T04:02:59;99485;;;15.2;100
49583;BME280;36329;48.816;44.624;2023-10-08T04:06:04;99484;;;15.2;100
49583;BME280;36329;48.816;44.624;2023-10-08T04:09:06;99489;;;15.1;100
49583;BME280;36329;48.816;44.624;2023-10-08T04:12:08;99500;;;15.1;100
49583;BME280;36329;48.816;44.624;2023-10-08T04:15:13;99498;;;15.1;100
49583;BME280;36329;48.816;44.624;2023-10-08T04:18:15;99489;;;15.1;100
49583;BME280;36329;48.816;44.624;2023-10-08T04:21:18;99487;;;15.1;100
49583;BME280;36329;48.816;44.624;2023-10-08T04:24:31;99496;;;15.1;100
49583;BME280;36329;48.816;44.624;2023-10-08T04:27:34;99492;;;15.1;100
49583;BME280;36329;48.816;44.624;2023-10-08T04:30:37;99486;;;15.1;100
49583;BME280;36329;48.816;44.624;2023-10-08T04:33:42;99477;;;15.2;100
49583;BME280;36329;48.816;44.624;2023-10-08T04:36:49;99476;;;15.2;100
49583;BME280;36329;48.816;44.624;2023-10-08T04:39:51;99480;;;15.2;100
49583;BME280;36329;48.816;44.624;2023-10-08T04:42:53;99477;;;15.2;100
49583;BME280;36329;48.816;44.624;2023-10-08T04:45:55;99474;;;15.3;100
49583;BME280;36329;48.816;44.624;2023-10-08T04:48:58;99496;;;15.4;100
49583;BME280;36329;48.816;44.624;2023-10-08T04:52:02;99482;;;15.3;100
49583;BME280;36329;48.816;44.624;2023-10-08T04:55:07;99484;;;15.3;100
49583;BME280;36329;48.816;44.624;2023-10-08T04:58:10;99477;;;15.3;100
49583;BME280;36329;48.816;44.624;2023-10-08T05:01:14;99469;;;15.3;100
49583;BME280;36329;48.816;44.624;2023-10-08T05:04:17;99471;;;15.2;100
49583;BME280;36329;48.816;44.624;2023-10-08T05:07:20;99473;;;15.3;100
49583;BME280;36329;48.816;44.624;2023-10-08T05:10:24;99476;;;15.4;100
49583;BME280;36329;48.816;44.624;2023-10-08T05:13:26;99468;;;15.5;100
49583;BME280;36329;48.816;44.624;2023-10-08T05:16:28;99473;;;15.6;100
49583;BME280;36329;48.816;44.624;2023-10-08T05:19:40;99484;;;15.4;100
49583;BME280;36329;48.816;44.624;2023-10-08T05:22:47;99476;;;15.5;100
49583;BME280;36329;48.816;44.624;2023-10-08T05:25:53;99466;;;15.6;100
49583;BME280;36329;48.816;44.624;2023-10-08T05:28:57;99457;;;15.6;100
49583;BME280;36329;48.816;44.624;2023-10-08T05:32:05;99466;;;15.6;100
49583;BME280;36329;48.816;44.624;2023-10-08T05:35:12;99456;;;15.6;100
49583;BME280;36329;48.816;44.624;2023-10-08T05:38:17;99455;;;15.6;100
49583;BME280;36329;48.816;44.624;2023-10-08T05:41:31;99451;;;15.6;100
49583;BME280;36329;48.816;44.624;2023-10-08T05:44:33;99443;;;15.6;100
49583;BME280;36329;48.816;44.624;2023-10-08T05:47:41;99444;;;15.6;100
49583;BME280;36329;48.816;44.624;2023-10-08T05:50:54;99435;;;15.6;100
49583;BME280;36329;48.816;44.624;2023-10-08T05:53:57;99449;;;15.7;100
49583;BME280;36329;48.816;44.624;2023-10-08T05:57:00;99448;;;15.6;100
49583;BME280;36329;48.816;44.624;2023-10-08T06:00:19;99434;;;15.5;100
49583;BME280;36329;48.816;44.624;2023-10-08T06:03:32;99433;;;15.5;100
49583;BME280;36329;48.816;44.624;2023-10-08T06:06:49;99430;;;15.4;100
49583;BME280;36329;48.816;44.624;2023-10-08T06:09:57;99420;;;15.4;100
49583;BME280;36329;48.816;44.624;2023-10-08T06:13:00;99416;;;15.4;100
49583;BME280;36329;48.816;44.624;2023-10-08T06:16:04;99413;;;15.3;100
49583;BME280;36329;48.816;44.624;2023-10-08T06:19:06;99410;;;15.2;100
49583;BME280;36329;48.816;44.624;2023-10-08T06:22:13;99426;;;15.2;100
49583;BME280;36329;48.816;44.624;2023-10-08T06:25:24;99405;;;15.1;100
49583;BME280;36329;48.816;44.624;2023-10-08T06:28:26;99400;;;15;100
49583;BME280;36329;48.816;44.624;2023-10-08T06:31:33;99393;;;15;100
49583;BME280;36329;48.816;44.624;2023-10-08T06:34:46;99385;;;15.1;100
49583;BME280;36329;48.816;44.624;2023-10-08T06:37:54;99388;;;15.1;100
49583;BME280;36329;48.816;44.624;2023-10-08T06:40:56;99379;;;15.1;100
49583;BME280;36329;48.816;44.624;2023-10-08T06:43:59;99386;;;15.2;100
49583;BME280;36329;48.816;44.624;2023-10-08T06:47:01;99395;;;15.2;100
49583;BME280;36329;48.816;44.624;2023-10-08T06:50:05;99380;;;15.2;100
49583;BME280;36329;48.816;44.624;2023-10-08T06:53:17;99370;;;15.2;100
49583;BME280;36329;48.816;44.624;2023-10-08T06:56:20;99359;;;15.2;100
49583;BME280;36329;48.816;44.624;2023-10-08T06:59:23;99344;;;15.3;100
49583;BME280;36329;48.816;44.624;2023-10-08T07:02:31;99348;;;15.3;100
49583;BME280;36329;48.816;44.624;2023-10-08T07:05:38;99352;;;15.3;100
49583;BME280;36329;48.816;44.624;2023-10-08T07:08:43;99344;;;15.4;100
49583;BME280;36329;48.816;44.624;2023-10-08T07:11:45;99338;;;15.4;100
49583;BME280;36329;48.816;44.624;2023-10-08T07:14:48;99337;;;15.4;100
49583;BME280;36329;48.816;44.624;2023-10-08T07:17:52;99323;;;15.4;100
49583;BME280;36329;48.816;44.624;2023-10-08T07:20:56;99308;;;15.4;100
49583;BME280;36329;48.816;44.624;2023-10-08T07:23:58;99317;;;15.6;100
49583;BME280;36329;48.816;44.624;2023-10-08T07:27:00;99308;;;15.6;100
49583;BME280;36329;48.816;44.624;2023-10-08T07:30:03;99321;;;15.6;100
49583;BME280;36329;48.816;44.624;2023-10-08T07:33:18;99306;;;15.6;100
49583;BME280;36329;48.816;44.624;2023-10-08T07:36:30;99305;;;15.6;100
49583;BME280;36329;48.816;44.624;2023-10-08T07:39:34;99303;;;15.6;100
49583;BME280;36329;48.816;44.624;2023-10-08T07:42:37;99309;;;15.5;100
49583;BME280;36329;48.816;44.624;2023-10-08T07:45:40;99303;;;15.5;100
49583;BME280;36329;48.816;44.624;2023-10-08T07:48:48;99302;;;15.5;100
49583;BME280;36329;48.816;44.624;2023-10-08T07:51:52;99303;;;15.4;100
49583;BME280;36329;48.816;44.624;2023-10-08T07:55:00;99308;;;15.4;100
49583;BME280;36329;48.816;44.624;2023-10-08T07:58:04;99301;;;15.3;100
49583;BME280;36329;48.816;44.624;2023-10-08T08:01:19;99289;;;15.2;100
49583;BME280;36329;48.816;44.624;2023-10-08T08:04:21;99282;;;15.3;100
49583;BME280;36329;48.816;44.624;2023-10-08T08:07:35;99289;;;15.2;100
49583;BME280;36329;48.816;44.624;2023-10-08T08:10:38;99297;;;15.2;100
49583;BME280;36329;48.816;44.624;2023-10-08T08:13:40;99313;;;15.2;100
49583;BME280;36329;48.816;44.624;2023-10-08T08:16:45;99331;;;15.2;100
49583;BME280;36329;48.816;44.624;2023-10-08T08:19:48;99332;;;14.5;100
49583;BME280;36329;48.816;44.624;2023-10-08T08:22:52;99321;;;14.3;100
49583;BME280;36329;48.816;44.624;2023-10-08T08:26:08;99329;;;14.3;100
49583;BME280;36329;48.816;44.624;2023-10-08T08:29:11;99324;;;14.2;100
49583;BME280;36329;48.816;44.624;2023-10-08T08:32:14;99313;;;14.4;100
49583;BME280;36329;48.816;44.624;2023-10-08T08:35:22;99312;;;14.3;100
49583;BME280;36329;48.816;44.624;2023-10-08T08:38:31;99308;;;14.3;100
49583;BME280;36329;48.816;44.624;2023-10-08T08:41:40;99302;;;14.3;100
49583;BME280;36329;48.816;44.624;2023-10-08T08:44:45;99286;;;14.2;100
49583;BME280;36329;48.816;44.624;2023-10-08T08:47:47;99306;;;14.3;100
49583;BME280;36329;48.816;44.624;2023-10-08T08:50:51;99309;;;14.3;100
49583;BME280;36329;48.816;44.624;2023-10-08T08:54:06;99304;;;14.1;100
49583;BME280;36329;48.816;44.624;2023-10-08T08:57:12;99305;;;14.6;100
49583;BME280;36329;48.816;44.624;2023-10-08T09:00:15;99308;;;14.6;100
49583;BME280;36329;48.816;44.624;2023-10-08T09:03:18;99312;;;14.7;100
49583;BME280;36329;48.816;44.624;2023-10-08T09:06:20;99309;;;14.9;100
49583;BME280;36329;48.816;44.624;2023-10-08T09:09:30;99317;;;14.9;100
49583;BME280;36329;48.816;44.624;2023-10-08T09:12:34;99325;;;15;100
49583;BME280;36329;48.816;44.624;2023-10-08T09:15:38;99326;;;14.7;100
49583;BME280;36329;48.816;44.624;2023-10-08T09:18:41;99337;;;14.2;100
49583;BME280;36329;48.816;44.624;2023-10-08T09:22:06;99326;;;13.9;100
49583;BME280;36329;48.816;44.624;2023-10-08T09:25:19;99316;;;13.6;100
49583;BME280;36329;48.816;44.624;2023-10-08T09:28:24;99313;;;13.5;100
49583;BME280;36329;48.816;44.624;2023-10-08T09:31:26;99331;;;13.4;100
49583;BME280;36329;48.816;44.624;2023-10-08T09:34:29;99324;;;13.1;100
49583;BME280;36329;48.816;44.624;2023-10-08T09:37:31;99338;;;13.3;100
49583;BME280;36329;48.816;44.624;2023-10-08T09:40:34;99348;;;13.5;100
49583;BME280;36329;48.816;44.624;2023-10-08T09:43:38;99356;;;13.5;100
49583;BME280;36329;48.816;44.624;2023-10-08T09:47:05;99358;;;13.3;100
49583;BME280;36329;48.816;44.624;2023-10-08T09:50:19;99357;;;13.4;100
49583;BME280;36329;48.816;44.624;2023-10-08T09:53:42;99362;;;13.5;100
49583;BME280;36329;48.816;44.624;2023-10-08T09:56:53;99378;;;13.1;100
49583;BME280;36329;48.816;44.624;2023-10-08T10:00:12;99385;;;13.2;100
49583;BME280;36329;48.816;44.624;2023-10-08T10:03:16;99388;;;13.2;100
49583;BME280;36329;48.816;44.624;2023-10-08T10:06:42;99379;;;13.4;100
49583;BME280;36329;48.816;44.624;2023-10-08T10:09:54;99385;;;13.4;100
49583;BME280;36329;48.816;44.624;2023-10-08T10:12:58;99377;;;13.4;100
49583;BME280;36329;48.816;44.624;2023-10-08T10:16:04;99381;;;13.4;100
49583;BME280;36329;48.816;44.624;2023-10-08T10:19:17;99388;;;13.4;100
49583;BME280;36329;48.816;44.624;2023-10-08T10:22:33;99397;;;13.5;100
49583;BME280;36329;48.816;44.624;2023-10-08T10:25:43;99390;;;13.6;100
49583;BME280;36329;48.816;44.624;2023-10-08T10:32:24;99396;;;13.8;95.9
49583;BME280;36329;48.816;44.624;2023-10-08T10:35:28;99396;;;13.5;93
49583;BME280;36329;48.816;44.624;2023-10-08T10:38:35;99404;;;13.5;96.5
49583;BME280;36329;48.816;44.624;2023-10-08T10:41:44;99406;;;13.3;95.4
49583;BME280;36329;48.816;44.624;2023-10-08T10:44:55;99408;;;13.5;96.7
49583;BME280;36329;48.816;44.624;2023-10-08T10:47:58;99413;;;13.6;94.2
49583;BME280;36329;48.816;44.624;2023-10-08T10:51:04;99420;;;13.9;93
49583;BME280;36329;48.816;44.624;2023-10-08T10:54:08;99414;;;13.9;91.6
49583;BME280;36329;48.816;44.624;2023-10-08T10:57:11;99411;;;13.9;94.6
49583;BME280;36329;48.816;44.624;2023-10-08T11:00:16;99408;;;13.8;94.3
49583;BME280;36329;48.816;44.624;2023-10-08T11:03:32;99412;;;13.6;97.3
49583;BME280;36329;48.816;44.624;2023-10-08T11:06:36;99413;;;13.5;97.8
49583;BME280;36329;48.816;44.624;2023-10-08T11:09:39;99417;;;13.4;95.3
49583;BME280;36329;48.816;44.624;2023-10-08T11:12:48;99413;;;13.4;97.6
49583;BME280;36329;48.816;44.624;2023-10-08T11:15:56;99421;;;13.4;97.6
49583;BME280;36329;48.816;44.624;2023-10-08T11:19:07;99427;;;13.2;97.1
49583;BME280;36329;48.816;44.624;2023-10-08T11:22:15;99432;;;13.1;97.8
49583;BME280;36329;48.816;44.624;2023-10-08T11:25:28;99442;;;12.7;97.3
49583;BME280;36329;48.816;44.624;2023-10-08T11:28:38;99452;;;12.6;100
49583;BME280;36329;48.816;44.624;2023-10-08T11:31:42;99456;;;12.6;100
49583;BME280;36329;48.816;44.624;2023-10-08T11:34:56;99461;;;12.6;100
49583;BME280;36329;48.816;44.624;2023-10-08T11:38:13;99460;;;12.7;100
49583;BME280;36329;48.816;44.624;2023-10-08T11:41:18;99465;;;12.6;100
49583;BME280;36329;48.816;44.624;2023-10-08T11:44:33;99463;;;12.6;100
49583;BME280;36329;48.816;44.624;2023-10-08T11:47:47;99469;;;12.6;100
49583;BME280;36329;48.816;44.624;2023-10-08T11:50:52;99473;;;12.8;100
49583;BME280;36329;48.816;44.624;2023-10-08T11:54:02;99465;;;12.8;100
49583;BME280;36329;48.816;44.624;2023-10-08T11:57:09;99467;;;12.8;100
49583;BME280;36329;48.816;44.624;2023-10-08T12:00:16;99467;;;12.8;100
49583;BME280;36329;48.816;44.624;2023-10-08T12:03:18;99466;;;12.6;100
49583;BME280;36329;48.816;44.624;2023-10-08T12:06:23;99468;;;12.6;100
49583;BME280;36329;48.816;44.624;2023-10-08T12:09:25;99469;;;12.6;100
49583;BME280;36329;48.816;44.624;2023-10-08T12:12:28;99455;;;12.6;100
49583;BME280;36329;48.816;44.624;2023-10-08T12:15:33;99462;;;12.7;100
49583;BME280;36329;48.816;44.624;2023-10-08T12:18:45;99454;;;12.6;100
49583;BME280;36329;48.816;44.624;2023-10-08T12:21:55;99463;;;12.5;100
49583;BME280;36329;48.816;44.624;2023-10-08T12:25:08;99459;;;12.4;100
49583;BME280;36329;48.816;44.624;2023-10-08T12:28:11;99459;;;12.5;100
49583;BME280;36329;48.816;44.624;2023-10-08T12:31:18;99459;;;12.4;100
49583;BME280;36329;48.816;44.624;2023-10-08T12:34:22;99472;;;12.4;100
49583;BME280;36329;48.816;44.624;2023-10-08T12:37:25;99467;;;12.3;100
49583;BME280;36329;48.816;44.624;2023-10-08T12:40:34;99469;;;12.3;100
49583;BME280;36329;48.816;44.624;2023-10-08T12:43:42;99470;;;12.3;100
49583;BME280;36329;48.816;44.624;2023-10-08T12:46:46;99470;;;12.2;100
49583;BME280;36329;48.816;44.624;2023-10-08T12:50:02;99465;;;12.2;100
49583;BME280;36329;48.816;44.624;2023-10-08T12:53:12;99461;;;12;100
49583;BME280;36329;48.816;44.624;2023-10-08T12:56:20;99464;;;12.2;100
49583;BME280;36329;48.816;44.624;2023-10-08T12:59:33;99470;;;12.2;100
49583;BME280;36329;48.816;44.624;2023-10-08T13:02:45;99476;;;12.2;100
49583;BME280;36329;48.816;44.624;2023-10-08T13:05:53;99468;;;12.1;100
49583;BME280;36329;48.816;44.624;2023-10-08T13:08:57;99482;;;12.1;100
49583;BME280;36329;48.816;44.624;2023-10-08T13:12:00;99485;;;12.3;100
49583;BME280;36329;48.816;44.624;2023-10-08T13:15:03;99487;;;12.3;100
49583;BME280;36329;48.816;44.624;2023-10-08T13:18:08;99486;;;12.2;100
49583;BME280;36329;48.816;44.624;2023-10-08T13:21:10;99488;;;12.4;100
49583;BME280;36329;48.816;44.624;2023-10-08T13:24:13;99488;;;12.3;98.9
49583;BME280;36329;48.816;44.624;2023-10-08T13:27:20;99485;;;12.3;100
49583;BME280;36329;48.816;44.624;2023-10-08T13:33:47;99498;;;12.3;100
49583;BME280;36329;48.816;44.624;2023-10-08T13:36:52;99496;;;12.4;100
49583;BME280;36329;48.816;44.624;2023-10-08T13:39:55;99499;;;12.4;99.2
49583;BME280;36329;48.816;44.624;2023-10-08T13:43:12;99500;;;12.5;99.7
49583;BME280;36329;48.816;44.624;2023-10-08T13:46:22;99506;;;12.4;99.2
49583;BME280;36329;48.816;44.624;2023-10-08T13:49:25;99506;;;12.1;100
49583;BME280;36329;48.816;44.624;2023-10-08T13:52:32;99513;;;12;100
49583;BME280;36329;48.816;44.624;2023-10-08T13:55:46;99518;;;12.1;100
49583;BME280;36329;48.816;44.624;2023-10-08T13:58:49;99512;;;12;100
49583;BME280;36329;48.816;44.624;2023-10-08T14:01:58;99516;;;12;100
49583;BME280;36329;48.816;44.624;2023-10-08T14:05:02;99518;;;12;100
49583;BME280;36329;48.816;44.624;2023-10-08T14:08:19;99529;;;11.9;100
49583;BME280;36329;48.816;44.624;2023-10-08T14:11:28;99531;;;11.9;100
49583;BME280;36329;48.816;44.624;2023-10-08T14:14:46;99530;;;11.8;100
49583;BME280;36329;48.816;44.624;2023-10-08T14:17:50;99541;;;11.6;100
49583;BME280;36329;48.816;44.624;2023-10-08T14:21:02;99540;;;11.7;100
49583;BME280;36329;48.816;44.624;2023-10-08T14:24:17;99548;;;11.8;100
49583;BME280;36329;48.816;44.624;2023-10-08T14:27:30;99545;;;11.8;100
49583;BME280;36329;48.816;44.624;2023-10-08T14:30:32;99566;;;11.6;100
49583;BME280;36329;48.816;44.624;2023-10-08T14:33:42;99550;;;11.4;100
49583;BME280;36329;48.816;44.624;2023-10-08T14:36:47;99553;;;11.4;100
49583;BME280;36329;48.816;44.624;2023-10-08T14:39:49;99573;;;11.3;100
49583;BME280;36329;48.816;44.624;2023-10-08T14:42:51;99559;;;11.1;100
49583;BME280;36329;48.816;44.624;2023-10-08T14:45:53;99577;;;11.2;100
49583;BME280;36329;48.816;44.624;2023-10-08T14:49:01;99581;;;11.2;100
49583;BME280;36329;48.816;44.624;2023-10-08T14:52:04;99604;;;11;100
49583;BME280;36329;48.816;44.624;2023-10-08T14:55:13;99600;;;11.1;100
49583;BME280;36329;48.816;44.624;2023-10-08T14:58:17;99602;;;11.1;100
49583;BME280;36329;48.816;44.624;2023-10-08T15:01:20;99591;;;10.8;100
49583;BME280;36329;48.816;44.624;2023-10-08T15:04:29;99610;;;10.8;100
49583;BME280;36329;48.816;44.624;2023-10-08T15:07:45;99617;;;10.7;100
49583;BME280;36329;48.816;44.624;2023-10-08T15:11:10;99610;;;10.9;100
49583;BME280;36329;48.816;44.624;2023-10-08T15:14:21;99606;;;10.8;100
49583;BME280;36329;48.816;44.624;2023-10-08T15:17:25;99619;;;10.7;100
49583;BME280;36329;48.816;44.624;2023-10-08T15:20:34;99623;;;10.8;100
49583;BME280;36329;48.816;44.624;2023-10-08T15:23:37;99625;;;10.6;100
49583;BME280;36329;48.816;44.624;2023-10-08T15:26:39;99627;;;10.9;100
49583;BME280;36329;48.816;44.624;2023-10-08T15:29:49;99626;;;10.8;100
49583;BME280;36329;48.816;44.624;2023-10-08T15:32:51;99634;;;10.7;100
49583;BME280;36329;48.816;44.624;2023-10-08T15:36:00;99641;;;10.6;100
49583;BME280;36329;48.816;44.624;2023-10-08T15:39:03;99640;;;10.6;100
49583;BME280;36329;48.816;44.624;2023-10-08T15:42:17;99650;;;10.6;100
49583;BME280;36329;48.816;44.624;2023-10-08T15:45:27;99641;;;10.4;100
49583;BME280;36329;48.816;44.624;2023-10-08T15:48:29;99646;;;10.7;100
49583;BME280;36329;48.816;44.624;2023-10-08T15:51:34;99648;;;10.8;100
49583;BME280;36329;48.816;44.624;2023-10-08T15:54:36;99646;;;10.9;100
49583;BME280;36329;48.816;44.624;2023-10-08T15:57:43;99652;;;10.7;100
49583;BME280;36329;48.816;44.624;2023-10-08T16:00:46;99658;;;10.7;100
49583;BME280;36329;48.816;44.624;2023-10-08T16:04:04;99654;;;10.5;100
49583;BME280;36329;48.816;44.624;2023-10-08T16:07:16;99666;;;10.5;100
49583;BME280;36329;48.816;44.624;2023-10-08T16:10:30;99668;;;10.3;100
49583;BME280;36329;48.816;44.624;2023-10-08T16:13:33;99671;;;10.3;100
49583;BME280;36329;48.816;44.624;2023-10-08T16:16:40;99683;;;10.2;100
49583;BME280;36329;48.816;44.624;2023-10-08T16:19:53;99686;;;10.2;100
49583;BME280;36329;48.816;44.624;2023-10-08T16:22:55;99678;;;10.4;100
49583;BME280;36329;48.816;44.624;2023-10-08T16:25:57;99677;;;10.3;100
49583;BME280;36329;48.816;44.624;2023-10-08T16:29:02;99688;;;10.4;100
49583;BME280;36329;48.816;44.624;2023-10-08T16:32:09;99690;;;10.4;100
49583;BME280;36329;48.816;44.624;2023-10-08T16:35:26;99696;;;10.3;100
49583;BME280;36329;48.816;44.624;2023-10-08T16:38:36;99699;;;10.3;100
49583;BME280;36329;48.816;44.624;2023-10-08T16:41:43;99708;;;10.3;100
49583;BME280;36329;48.816;44.624;2023-10-08T16:44:52;99714;;;10;100
49583;BME280;36329;48.816;44.624;2023-10-08T16:48:04;99723;;;9.9;100
49583;BME280;36329;48.816;44.624;2023-10-08T16:51:08;99715;;;9.9;100
49583;BME280;36329;48.816;44.624;2023-10-08T16:54:19;99710;;;9.6;100
49583;BME280;36329;48.816;44.624;2023-10-08T16:57:23;99718;;;9.7;100
49583;BME280;36329;48.816;44.624;2023-10-08T17:00:31;99713;;;9.6;100
49583;BME280;36329;48.816;44.624;2023-10-08T17:03:35;99722;;;9.7;100
49583;BME280;36329;48.816;44.624;2023-10-08T17:06:40;99720;;;9.4;100
49583;BME280;36329;48.816;44.624;2023-10-08T17:09:47;99717;;;9.4;100
49583;BME280;36329;48.816;44.624;2023-10-08T17:12:58;99711;;;9.4;100
49583;BME280;36329;48.816;44.624;2023-10-08T17:16:00;99711;;;9.4;100
49583;BME280;36329;48.816;44.624;2023-10-08T17:19:08;99704;;;9.4;100
49583;BME280;36329;48.816;44.624;2023-10-08T17:22:12;99704;;;9.2;100
49583;BME280;36329;48.816;44.624;2023-10-08T17:25:22;99709;;;9.2;100
49583;BME280;36329;48.816;44.624;2023-10-08T17:28:46;99708;;;9;100
49583;BME280;36329;48.816;44.624;2023-10-08T17:32:02;99703;;;9.2;100
49583;BME280;36329;48.816;44.624;2023-10-08T17:35:06;99695;;;9.2;100
49583;BME280;36329;48.816;44.624;2023-10-08T17:38:15;99701;;;9.1;100
49583;BME280;36329;48.816;44.624;2023-10-08T17:41:23;99714;;;8.9;100
49583;BME280;36329;48.816;44.624;2023-10-08T17:44:31;99710;;;8.9;100